CheckWX is a tool to help pilots better visualize weather data.  It is not intended as a substitute for an official pre-flight weather briefing.

09:38:25 UTC

ETHC METAR
Celle Airport
Germany
Current

18 mins ago

ETHC 200920Z 23008KT 9999 FEW036 BKN050 BKN110 07/03 Q1021 BLU BLU
Observed
Feb-20 @ 09:20 UTC
Wind
  • 230° at 8 KTS
Visibility
10,000+ meters
Flight Rules
VFR
Cloud Levels
  • Few at 3,600' AGL
  • Broken at 5,000' AGL
  • Broken at 11,000' AGL
Temperature
C / 45°F
Dewpoint
C / 37°F
Humidity
76%
Altimeter
30.15" Hg
Pressure
1020.92 hPa
Previous

1 hour ago

ETHC 200820Z 23006KT 9999 FEW036 BKN042 BKN055 06/03 Q1021 BLU BLU
Observed
Feb-20 @ 08:20 UTC
Wind
  • 230° at 6 KTS
Visibility
10,000+ meters
Flight Rules
VFR
Cloud Levels
  • Few at 3,600' AGL
  • Broken at 4,200' AGL
  • Broken at 5,500' AGL
Temperature
C / 43°F
Dewpoint
C / 37°F
Humidity
81%
Altimeter
30.15" Hg
Pressure
1020.92 hPa
Previous

2 hours ago

ETHC 200720Z 23005KT 9999 BKN050 BKN110 06/03 Q1020 BLU BLU
Observed
Feb-20 @ 07:20 UTC
Wind
  • 230° at 5 KTS
Visibility
10,000+ meters
Flight Rules
VFR
Cloud Levels
  • Broken at 5,000' AGL
  • Broken at 11,000' AGL
Temperature
C / 43°F
Dewpoint
C / 37°F
Humidity
81%
Altimeter
30.12" Hg
Pressure
1019.92 hPa